Time;durP1;ratioP1;P1;durP2;ratioP2;P2;SDS_P1;SDS_P2;PMS_P1;PMS_P2;Temp;Humidity;BMP_temperature;BMP_pressure;BME280_temperature;BME280_humidity;BME280_pressure;Samples;Min_cycle;Max_cycle;Signal;HPM_P1;HPM_P2
2021/06/29 00:01:03;;;;;;;5.47;1.60;;;24.50;84.70;;;;;;5028590;28;20022;-73
2021/06/29 00:03:28;;;;;;;8.90;2.13;;;24.70;84.30;;;;;;5031763;28;20428;-73
2021/06/29 00:05:54;;;;;;;6.18;1.70;;;24.80;83.60;;;;;;5033854;28;20080;-74
2021/06/29 00:08:20;;;;;;;3.58;1.80;;;24.80;83.30;;;;;;5034323;28;20472;-73
2021/06/29 00:10:47;;;;;;;4.22;1.75;;;24.90;83.50;;;;;;5033332;28;20021;-73
2021/06/29 00:13:13;;;;;;;3.28;1.60;;;24.90;83.30;;;;;;5031707;28;20029;-73
2021/06/29 00:15:39;;;;;;;5.50;2.05;;;24.70;84.00;;;;;;5033561;28;20029;-73
2021/06/29 00:18:05;;;;;;;3.40;1.67;;;24.70;84.10;;;;;;5033124;28;20100;-73
2021/06/29 00:20:31;;;;;;;3.50;1.63;;;24.60;84.10;;;;;;5034045;28;20078;-73
2021/06/29 00:22:57;;;;;;;3.92;1.63;;;24.60;84.30;;;;;;5033371;28;20029;-73
2021/06/29 00:25:23;;;;;;;5.43;1.70;;;24.70;83.90;;;;;;5034134;28;20040;-73
2021/06/29 00:27:49;;;;;;;3.10;1.80;;;24.50;84.90;;;;;;5033370;28;20022;-73
2021/06/29 00:30:15;;;;;;;2.65;1.50;;;24.40;85.70;;;;;;5033841;28;20029;-73
2021/06/29 00:32:42;;;;;;;3.95;2.15;;;24.20;85.10;;;;;;5033292;28;20108;-73
2021/06/29 00:35:08;;;;;;;3.35;1.75;;;24.00;85.50;;;;;;5033612;28;20029;-73
2021/06/29 00:37:34;;;;;;;3.75;1.50;;;24.20;85.30;;;;;;5032818;28;20052;-73
2021/06/29 00:39:59;;;;;;;3.80;1.80;;;24.20;85.00;;;;;;5033183;28;20034;-73
2021/06/29 00:42:25;;;;;;;3.75;1.40;;;24.20;84.70;;;;;;5033265;28;20084;-73
2021/06/29 00:44:51;;;;;;;3.28;1.80;;;24.20;84.80;;;;;;5033691;28;20022;-73
2021/06/29 00:47:17;;;;;;;3.72;1.60;;;24.20;84.50;;;;;;5032932;28;20128;-73
2021/06/29 00:49:43;;;;;;;7.05;2.28;;;24.20;84.80;;;;;;5033532;28;20443;-73
2021/06/29 00:52:14;;;;;;;2.67;1.50;;;24.20;84.90;;;;;;5032753;28;20045;-73
2021/06/29 00:54:41;;;;;;;3.60;1.80;;;24.20;85.20;;;;;;5033479;28;20052;-73
2021/06/29 00:57:08;;;;;;;3.50;2.00;;;23.90;85.60;;;;;;5032947;28;20029;-72
2021/06/29 00:59:34;;;;;;;6.05;2.08;;;23.90;86.00;;;;;;5033072;28;20377;-73
2021/06/29 01:02:00;;;;;;;5.72;1.90;;;23.80;85.70;;;;;;5032520;28;20039;-73
2021/06/29 01:04:26;;;;;;;4.55;1.90;;;23.90;85.80;;;;;;5032543;28;20044;-73
2021/06/29 01:06:53;;;;;;;3.40;1.63;;;23.80;86.20;;;;;;5032397;28;20025;-73
2021/06/29 01:09:20;;;;;;;4.82;1.95;;;23.70;86.40;;;;;;5033165;28;20030;-73
2021/06/29 01:11:46;;;;;;;3.58;1.80;;;23.80;86.40;;;;;;5032313;28;20064;-73
2021/06/29 01:14:14;;;;;;;4.43;1.77;;;23.90;85.80;;;;;;5032376;28;20025;-73
2021/06/29 01:16:41;;;;;;;4.47;1.98;;;23.70;86.10;;;;;;5033273;28;20487;-73
2021/06/29 01:19:07;;;;;;;4.95;1.80;;;23.70;85.90;;;;;;5028044;28;20037;-73
2021/06/29 01:21:41;;;;;;;4.55;1.98;;;23.90;85.80;;;;;;5024436;28;20094;-73
2021/06/29 01:24:11;;;;;;;;;;;23.90;86.00;;;;;;5032643;28;20017;-72
2021/06/29 01:26:42;;;;;;;4.18;1.98;;;23.80;85.90;;;;;;5032867;28;19906;-73
2021/06/29 01:29:08;;;;;;;5.45;2.17;;;23.90;85.50;;;;;;5032216;28;20112;-72
2021/06/29 01:31:35;;;;;;;3.97;2.17;;;23.90;85.40;;;;;;5032698;28;20540;-73
2021/06/29 01:34:02;;;;;;;4.18;1.73;;;23.90;85.10;;;;;;5027600;28;20052;-73
2021/06/29 01:36:35;;;;;;;3.05;1.70;;;23.90;85.20;;;;;;5012896;28;20446;-73
2021/06/29 01:39:09;;;;;;;4.50;2.10;;;23.90;85.60;;;;;;5020941;28;20022;-73
2021/06/29 01:41:35;;;;;;;4.43;1.92;;;23.80;85.90;;;;;;5032562;28;20021;-73
2021/06/29 01:46:33;;;;;;;6.72;2.30;;;23.70;86.60;;;;;;5032499;28;20037;-73
2021/06/29 01:48:59;;;;;;;5.47;2.47;;;23.70;86.90;;;;;;5032122;28;20017;-72
2021/06/29 01:51:24;;;;;;;5.60;2.28;;;23.60;87.00;;;;;;5032421;28;20031;-72
2021/06/29 01:53:52;;;;;;;7.10;3.03;;;23.70;87.00;;;;;;5031544;28;20021;-72
2021/06/29 01:56:24;;;;;;;5.28;2.10;;;23.70;86.80;;;;;;5032300;28;20025;-72
2021/06/29 01:58:54;;;;;;;6.40;2.95;;;23.80;87.00;;;;;;5031844;28;20033;-73
2021/06/29 02:01:22;;;;;;;6.88;2.70;;;23.80;87.20;;;;;;5031846;28;20057;-73
2021/06/29 02:03:48;;;;;;;5.50;2.30;;;23.80;86.80;;;;;;5032017;28;20104;-73
2021/06/29 02:06:15;;;;;;;6.82;2.75;;;23.90;87.00;;;;;;5030143;28;20038;-72
2021/06/29 02:08:42;;;;;;;4.30;2.30;;;23.80;87.70;;;;;;5032026;28;20026;-73
2021/06/29 02:11:08;;;;;;;5.18;2.33;;;23.90;86.90;;;;;;5031062;28;20029;-73
2021/06/29 02:13:34;;;;;;;4.57;2.58;;;23.90;86.80;;;;;;5031982;28;20029;-73
2021/06/29 02:16:00;;;;;;;7.18;2.67;;;23.80;86.80;;;;;;5032145;28;20484;-73
2021/06/29 02:18:27;;;;;;;5.60;2.38;;;23.80;87.00;;;;;;5031514;28;20033;-73
2021/06/29 02:20:53;;;;;;;4.65;2.38;;;23.70;87.30;;;;;;5031704;28;20030;-72
2021/06/29 02:23:18;;;;;;;4.47;2.22;;;23.60;87.40;;;;;;5031618;28;20030;-73
2021/06/29 02:25:44;;;;;;;4.20;1.98;;;23.70;87.40;;;;;;5032087;28;20499;-72
2021/06/29 02:28:10;;;;;;;5.00;2.22;;;23.70;87.50;;;;;;5031244;28;20450;-73
2021/06/29 02:30:36;;;;;;;4.65;2.20;;;23.50;88.10;;;;;;5032038;28;20018;-73
2021/06/29 02:33:02;;;;;;;3.35;2.03;;;23.50;88.70;;;;;;5031133;28;20033;-73
2021/06/29 02:35:28;;;;;;;4.88;2.30;;;23.30;89.50;;;;;;5031468;28;20060;-73
2021/06/29 02:37:55;;;;;;;6.43;2.50;;;23.10;89.90;;;;;;5031315;28;20110;-73
2021/06/29 02:40:20;;;;;;;5.57;2.40;;;23.10;89.50;;;;;;5031758;28;20021;-72
2021/06/29 02:42:47;;;;;;;5.03;2.50;;;23.20;89.50;;;;;;5030901;28;20026;-73
2021/06/29 02:45:17;;;;;;;6.22;2.53;;;23.20;89.70;;;;;;5031754;28;20044;-73
2021/06/29 02:47:43;;;;;;;5.07;2.45;;;23.30;89.90;;;;;;5031564;28;20526;-73
2021/06/29 02:50:10;;;;;;;5.72;2.33;;;23.30;90.00;;;;;;5031576;28;20022;-73
2021/06/29 02:52:36;;;;;;;5.53;2.92;;;23.30;89.90;;;;;;5029758;28;20108;-72
2021/06/29 02:55:05;;;;;;;5.13;2.50;;;23.30;89.80;;;;;;5030277;28;20030;-72
2021/06/29 02:57:31;;;;;;;5.25;2.35;;;23.20;89.90;;;;;;5030997;28;20080;-72
2021/06/29 02:59:57;;;;;;;4.90;2.63;;;23.00;90.30;;;;;;5031499;28;20025;-73
2021/06/29 03:02:23;;;;;;;7.35;2.63;;;22.90;90.60;;;;;;5029245;28;20041;-72
2021/06/29 03:04:49;;;;;;;7.22;3.35;;;22.90;90.30;;;;;;5020919;28;20038;-72
2021/06/29 03:07:15;;;;;;;7.28;2.78;;;23.00;90.20;;;;;;5023992;28;20046;-73
2021/06/29 03:09:40;;;;;;;6.30;2.65;;;23.20;90.00;;;;;;5023676;28;20095;-72
2021/06/29 03:12:07;;;;;;;5.03;2.25;;;23.30;90.00;;;;;;5023829;28;20022;-73
2021/06/29 03:14:36;;;;;;;9.55;2.72;;;23.40;90.00;;;;;;5023453;28;20064;-73
2021/06/29 03:17:03;;;;;;;6.68;2.80;;;23.40;90.00;;;;;;5024266;28;20037;-73
2021/06/29 03:19:33;;;;;;;5.28;2.63;;;23.10;90.20;;;;;;5023836;28;20084;-73
2021/06/29 03:22:01;;;;;;;4.22;2.25;;;23.20;90.30;;;;;;5023849;28;20044;-73
2021/06/29 03:24:28;;;;;;;4.35;2.55;;;23.10;90.30;;;;;;5025584;28;20025;-73
2021/06/29 03:26:54;;;;;;;5.93;3.08;;;23.10;90.60;;;;;;5027198;28;20026;-73
2021/06/29 03:29:20;;;;;;;3.83;2.40;;;22.70;90.90;;;;;;5028123;28;20032;-72
2021/06/29 03:31:46;;;;;;;5.25;2.35;;;22.90;90.80;;;;;;5027421;28;20030;-72
2021/06/29 03:34:13;;;;;;;4.97;2.10;;;23.00;91.00;;;;;;5026501;28;20056;-73
2021/06/29 03:36:39;;;;;;;12.90;3.40;;;22.90;90.90;;;;;;5027382;28;20061;-73
2021/06/29 03:39:06;;;;;;;5.15;2.88;;;22.90;90.90;;;;;;5027158;28;20033;-73
2021/06/29 03:41:32;;;;;;;5.47;2.75;;;23.00;90.80;;;;;;5027538;28;20026;-73
2021/06/29 03:43:58;;;;;;;6.22;2.75;;;23.10;91.00;;;;;;5026894;28;20026;-73
2021/06/29 03:46:24;;;;;;;5.00;2.28;;;23.10;91.10;;;;;;5026572;28;20025;-73
2021/06/29 03:48:50;;;;;;;6.53;2.95;;;23.00;91.10;;;;;;5027243;28;20103;-72
2021/06/29 03:51:15;;;;;;;12.10;3.30;;;22.70;91.30;;;;;;5027035;28;20030;-72
2021/06/29 03:53:41;;;;;;;46.63;7.22;;;22.70;91.60;;;;;;5027585;28;20018;-73
2021/06/29 03:56:23;;;;;;;28.02;5.15;;;22.80;92.20;;;;;;5026530;28;20534;-72
2021/06/29 03:58:53;;;;;;;37.15;5.25;;;22.70;92.30;;;;;;5026702;28;20116;-72
2021/06/29 04:01:19;;;;;;;5.13;2.70;;;22.70;92.40;;;;;;5027152;28;20029;-72
2021/06/29 04:03:45;;;;;;;5.03;2.95;;;22.70;91.60;;;;;;5026830;28;20040;-72
2021/06/29 04:06:11;;;;;;;5.35;2.60;;;22.70;91.80;;;;;;5025775;28;20484;-73
2021/06/29 04:08:36;;;;;;;5.53;3.03;;;22.70;92.00;;;;;;5026679;28;20036;-73
2021/06/29 04:11:02;;;;;;;5.47;3.47;;;22.80;91.90;;;;;;5026781;28;20502;-73
2021/06/29 04:13:28;;;;;;;5.50;3.05;;;22.90;91.60;;;;;;5026669;28;20028;-72
2021/06/29 04:15:53;;;;;;;9.00;3.45;;;23.00;91.70;;;;;;5026515;28;20091;-73
2021/06/29 04:18:20;;;;;;;4.95;2.80;;;23.10;91.30;;;;;;5026839;28;20491;-72
2021/06/29 04:20:45;;;;;;;9.27;2.80;;;23.20;91.10;;;;;;5026773;28;20468;-72
2021/06/29 04:23:11;;;;;;;9.38;2.83;;;23.30;91.20;;;;;;5026919;28;20068;-73
2021/06/29 04:25:37;;;;;;;7.57;3.22;;;23.30;91.60;;;;;;5025713;28;20040;-73
2021/06/29 04:28:03;;;;;;;6.45;3.00;;;23.20;91.50;;;;;;5025720;28;20039;-72
2021/06/29 04:30:29;;;;;;;7.25;2.63;;;23.10;91.80;;;;;;5026473;28;20045;-73
2021/06/29 04:32:54;;;;;;;4.82;2.58;;;23.00;91.70;;;;;;5026979;28;20041;-73
2021/06/29 04:35:20;;;;;;;7.55;3.05;;;23.00;91.80;;;;;;5026687;28;20038;-73
2021/06/29 04:41:08;;;;;;;5.95;2.70;;;23.10;92.40;;;;;;5025220;28;20052;-72
2021/06/29 04:43:37;;;;;;;10.73;3.05;;;23.00;91.70;;;;;;5026073;28;20400;-72
2021/06/29 04:46:03;;;;;;;5.63;2.88;;;23.20;91.80;;;;;;5025433;28;20041;-72
2021/06/29 04:48:29;;;;;;;6.15;2.72;;;23.10;92.00;;;;;;5026076;28;20068;-73
2021/06/29 04:50:55;;;;;;;5.72;2.50;;;23.20;92.40;;;;;;5025573;28;20057;-73
2021/06/29 04:53:20;;;;;;;4.05;2.80;;;23.00;92.40;;;;;;5025988;28;20030;-72
2021/06/29 04:55:46;;;;;;;6.03;2.50;;;23.00;92.70;;;;;;5025437;28;20032;-73
2021/06/29 04:58:12;;;;;;;7.70;3.03;;;23.00;92.40;;;;;;5026036;28;20033;-72
2021/06/29 05:00:43;;;;;;;9.77;3.13;;;23.20;91.60;;;;;;5025206;28;20022;-73
2021/06/29 05:03:09;;;;;;;6.68;3.15;;;23.30;92.10;;;;;;5024610;28;20436;-73
2021/06/29 05:05:35;;;;;;;5.07;2.65;;;23.30;91.50;;;;;;5024132;28;20187;-72
2021/06/29 05:08:00;;;;;;;8.57;2.83;;;23.50;91.80;;;;;;5025961;28;20585;-73
2021/06/29 05:10:28;;;;;;;4.65;2.88;;;23.50;91.70;;;;;;5025614;28;20033;-73
2021/06/29 05:12:54;;;;;;;5.13;3.35;;;23.60;91.50;;;;;;5025258;28;20059;-72
2021/06/29 05:15:20;;;;;;;5.75;2.78;;;23.60;91.70;;;;;;5025673;28;20040;-73
2021/06/29 05:17:46;;;;;;;4.88;3.08;;;23.60;91.60;;;;;;5025509;28;20025;-73
2021/06/29 05:20:12;;;;;;;4.50;2.70;;;23.60;92.00;;;;;;5025090;28;20168;-73
2021/06/29 05:22:38;;;;;;;5.50;2.95;;;23.60;92.80;;;;;;5025400;28;20033;-73
2021/06/29 05:25:05;;;;;;;6.43;3.03;;;23.60;92.50;;;;;;5025173;28;20037;-73
2021/06/29 05:27:31;;;;;;;8.02;3.05;;;23.60;91.90;;;;;;5026765;28;20029;-74
2021/06/29 05:29:57;;;;;;;6.60;3.42;;;23.50;91.50;;;;;;5027466;28;20467;-74
2021/06/29 05:32:23;;;;;;;4.43;2.97;;;23.60;91.90;;;;;;5024892;28;20029;-74
2021/06/29 05:34:49;;;;;;;5.00;2.90;;;23.60;91.50;;;;;;5035397;28;20061;-73
2021/06/29 05:37:14;;;;;;;4.55;3.05;;;23.70;91.30;;;;;;5043625;28;20487;-73
2021/06/29 05:39:40;;;;;;;5.53;2.88;;;23.80;91.10;;;;;;5024096;28;20033;-73
2021/06/29 05:42:06;;;;;;;9.85;3.53;;;23.90;91.20;;;;;;5025303;28;20101;-73
2021/06/29 05:44:32;;;;;;;4.82;2.72;;;23.90;91.20;;;;;;5025108;28;20526;-73
2021/06/29 05:46:58;;;;;;;5.30;2.83;;;24.00;91.80;;;;;;5024706;28;20025;-72
2021/06/29 05:49:24;;;;;;;7.25;3.15;;;24.10;92.20;;;;;;5025443;28;20294;-73
2021/06/29 05:51:49;;;;;;;5.00;2.92;;;24.10;91.30;;;;;;5025135;28;20373;-74
2021/06/29 05:54:15;;;;;;;4.88;2.90;;;24.10;91.30;;;;;;5024977;28;20029;-73
2021/06/29 05:56:42;;;;;;;5.63;2.97;;;24.20;91.20;;;;;;5025205;28;20022;-73
2021/06/29 05:59:09;;;;;;;4.28;3.05;;;24.20;91.30;;;;;;5025081;28;20084;-73
2021/06/29 06:01:35;;;;;;;8.00;3.38;;;24.30;91.90;;;;;;5024900;28;20078;-74
2021/06/29 06:04:00;;;;;;;5.35;3.58;;;24.40;92.00;;;;;;5025002;28;20459;-73
2021/06/29 06:06:26;;;;;;;7.43;3.10;;;24.40;92.30;;;;;;5025006;28;20041;-73
2021/06/29 06:08:52;;;;;;;5.63;2.63;;;24.50;91.40;;;;;;5024862;28;20030;-73
2021/06/29 06:11:17;;;;;;;11.68;4.00;;;24.50;91.50;;;;;;5024663;28;20480;-73
2021/06/29 06:13:43;;;;;;;7.15;3.17;;;24.40;91.80;;;;;;5029428;28;20018;-73
2021/06/29 06:16:09;;;;;;;9.35;3.80;;;24.30;91.70;;;;;;5027021;28;20021;-72
2021/06/29 06:18:36;;;;;;;12.07;3.85;;;24.30;91.50;;;;;;5024549;28;20033;-72
2021/06/29 06:21:02;;;;;;;9.95;3.75;;;24.10;91.40;;;;;;5025041;28;20024;-72
2021/06/29 06:23:28;;;;;;;7.32;3.20;;;23.90;91.50;;;;;;5023917;28;20029;-71
2021/06/29 06:25:53;;;;;;;27.38;4.47;;;23.90;91.80;;;;;;5022369;28;20496;-72
2021/06/29 06:28:19;;;;;;;79.85;8.45;;;23.80;92.20;;;;;;5024140;28;20032;-71
2021/06/29 06:30:45;;;;;;;7.70;3.97;;;23.80;92.20;;;;;;5023905;28;20052;-72
2021/06/29 06:33:11;;;;;;;17.08;4.57;;;23.90;92.10;;;;;;5038926;28;20493;-72
2021/06/29 06:35:37;;;;;;;9.60;3.72;;;23.80;92.30;;;;;;5024293;28;20101;-71
2021/06/29 06:38:03;;;;;;;8.18;3.53;;;23.70;92.10;;;;;;5023834;28;20152;-71
2021/06/29 06:40:29;;;;;;;5.97;3.00;;;23.70;92.40;;;;;;5023832;28;20024;-72
2021/06/29 06:42:55;;;;;;;8.98;4.07;;;23.70;92.40;;;;;;5022472;28;20033;-72
2021/06/29 06:45:23;;;;;;;7.63;4.18;;;23.70;92.60;;;;;;5023913;28;20061;-74
2021/06/29 06:47:51;;;;;;;7.97;3.72;;;23.70;92.70;;;;;;5023520;28;20021;-75
2021/06/29 06:50:17;;;;;;;8.00;3.15;;;23.70;92.80;;;;;;5023593;28;20060;-74
2021/06/29 06:52:43;;;;;;;5.82;3.33;;;23.80;92.80;;;;;;5023762;28;20025;-75
2021/06/29 06:55:09;;;;;;;7.68;3.75;;;23.90;92.70;;;;;;5023641;28;20030;-74
2021/06/29 06:57:35;;;;;;;7.28;3.53;;;23.90;92.50;;;;;;5023491;28;20045;-75
2021/06/29 07:00:01;;;;;;;52.65;8.43;;;24.00;92.50;;;;;;5027299;28;20033;-78
2021/06/29 07:02:27;;;;;;;11.43;4.00;;;24.30;92.60;;;;;;5027822;28;20046;-76
2021/06/29 07:04:53;;;;;;;16.65;4.57;;;24.60;92.60;;;;;;5027508;28;20131;-75
2021/06/29 07:07:18;;;;;;;12.45;4.43;;;25.00;92.20;;;;;;5027683;28;20075;-74
2021/06/29 07:09:44;;;;;;;109.20;12.93;;;24.90;91.80;;;;;;5027524;28;20534;-76
2021/06/29 07:12:10;;;;;;;29.13;5.85;;;24.80;91.70;;;;;;5028018;28;20091;-77
2021/06/29 07:14:36;;;;;;;8.73;3.40;;;24.90;91.60;;;;;;5027029;28;20034;-75
2021/06/29 07:17:03;;;;;;;10.55;3.95;;;25.10;91.50;;;;;;5027698;28;20056;-78
2021/06/29 07:19:28;;;;;;;16.27;3.75;;;25.30;91.50;;;;;;5028208;28;20037;-78
2021/06/29 07:21:54;;;;;;;5.00;3.13;;;25.60;91.20;;;;;;5027308;28;20923;-76
2021/06/29 07:24:20;;;;;;;6.20;3.45;;;25.80;90.70;;;;;;5027739;28;20041;-76
2021/06/29 07:26:45;;;;;;;9.93;3.40;;;25.90;90.50;;;;;;5026293;28;20029;-76
2021/06/29 07:29:11;;;;;;;9.80;3.75;;;26.20;90.40;;;;;;5027407;28;20035;-76
2021/06/29 07:31:37;;;;;;;14.02;3.72;;;26.20;90.30;;;;;;5027543;28;20033;-74
2021/06/29 07:34:03;;;;;;;7.22;3.10;;;26.70;90.20;;;;;;5027747;28;20674;-78
2021/06/29 07:36:29;;;;;;;7.47;3.58;;;27.30;89.30;;;;;;5027953;28;20525;-77
2021/06/29 07:38:56;;;;;;;7.85;3.30;;;28.10;87.60;;;;;;5027470;28;20025;-77
2021/06/29 07:41:22;;;;;;;7.45;3.38;;;28.30;86.30;;;;;;5028956;28;20021;-76
2021/06/29 07:43:48;;;;;;;7.55;3.67;;;28.80;85.30;;;;;;5042348;28;20028;-76
2021/06/29 07:46:14;;;;;;;10.82;3.35;;;29.10;84.70;;;;;;5027678;28;20041;-77
2021/06/29 07:48:40;;;;;;;5.57;3.13;;;29.10;83.20;;;;;;5028738;28;20025;-77
2021/06/29 07:51:08;;;;;;;9.57;3.33;;;29.10;83.10;;;;;;5027334;28;20033;-78
2021/06/29 07:53:34;;;;;;;5.70;3.05;;;29.00;84.70;;;;;;5027131;28;20104;-79
2021/06/29 07:56:00;;;;;;;6.65;3.20;;;28.70;85.40;;;;;;5027808;28;20033;-79
2021/06/29 07:58:27;;;;;;;5.50;3.10;;;28.40;85.40;;;;;;5028055;28;20021;-79
2021/06/29 08:00:52;;;;;;;6.32;3.10;;;28.20;85.90;;;;;;5027458;28;20040;-76
2021/06/29 08:03:18;;;;;;;7.75;3.50;;;27.50;85.70;;;;;;5027291;28;20108;-76
2021/06/29 08:05:44;;;;;;;4.63;2.70;;;27.70;86.50;;;;;;5027272;28;20030;-75
2021/06/29 08:08:10;;;;;;;7.38;3.03;;;27.80;86.70;;;;;;5027376;28;20025;-74
2021/06/29 08:10:36;;;;;;;4.82;3.10;;;27.80;86.30;;;;;;5026547;28;20022;-73
2021/06/29 08:13:03;;;;;;;6.00;3.38;;;27.80;86.60;;;;;;5027389;28;20017;-75
2021/06/29 08:15:29;;;;;;;7.03;3.20;;;27.90;86.30;;;;;;5027998;28;20560;-76
2021/06/29 08:17:55;;;;;;;11.30;3.63;;;28.10;85.60;;;;;;5029528;28;20094;-75
2021/06/29 08:20:21;;;;;;;5.30;3.15;;;28.20;86.30;;;;;;5028819;28;20021;-75
2021/06/29 08:22:48;;;;;;;5.95;3.08;;;28.50;85.40;;;;;;5028255;28;20022;-75
2021/06/29 08:25:14;;;;;;;7.18;3.38;;;28.20;85.50;;;;;;5030816;28;20030;-76
2021/06/29 08:27:40;;;;;;;10.90;2.97;;;28.40;86.60;;;;;;5026902;28;20281;-73
2021/06/29 08:30:09;;;;;;;33.88;5.68;;;28.10;85.20;;;;;;5042162;28;20080;-75
2021/06/29 08:32:37;;;;;;;9.57;3.03;;;27.70;87.80;;;;;;5027300;28;20211;-74
2021/06/29 08:35:07;;;;;;;8.00;3.00;;;28.10;87.00;;;;;;5027342;28;20038;-75
2021/06/29 08:37:33;;;;;;;8.05;3.03;;;28.40;87.70;;;;;;5027395;28;20061;-74
2021/06/29 08:39:59;;;;;;;7.20;2.90;;;28.10;86.60;;;;;;5027652;28;20308;-75
2021/06/29 08:42:25;;;;;;;5.47;2.83;;;28.30;86.10;;;;;;5027556;28;20126;-77
2021/06/29 08:44:51;;;;;;;8.63;3.88;;;28.30;85.60;;;;;;5027092;28;20040;-75
2021/06/29 08:47:17;;;;;;;6.50;3.28;;;28.60;85.90;;;;;;5026572;28;20030;-76
2021/06/29 08:49:42;;;;;;;8.90;3.13;;;28.50;85.90;;;;;;5026224;28;20025;-74
2021/06/29 08:52:10;;;;;;;12.15;3.83;;;28.70;86.10;;;;;;5026275;28;20029;-76
2021/06/29 08:54:36;;;;;;;19.63;4.05;;;28.80;84.80;;;;;;5026837;28;20484;-76
2021/06/29 08:57:02;;;;;;;9.77;3.35;;;28.80;85.90;;;;;;5026299;28;20104;-75
2021/06/29 08:59:28;;;;;;;8.07;3.33;;;28.50;85.10;;;;;;5026205;28;20025;-75
2021/06/29 09:01:54;;;;;;;9.48;3.58;;;28.70;84.50;;;;;;5026127;28;20029;-75
2021/06/29 09:04:43;;;;;;;6.18;2.97;;;28.70;83.30;;;;;;5026317;28;20041;-75
2021/06/29 09:07:18;;;;;;;6.78;2.78;;;28.90;85.50;;;;;;5026256;28;20387;-76
2021/06/29 09:09:54;;;;;;;5.93;2.90;;;28.80;84.40;;;;;;5026508;28;20164;-76
2021/06/29 09:12:47;;;;;;;6.35;3.60;;;29.10;83.80;;;;;;5026354;28;20029;-76
2021/06/29 09:15:35;;;;;;;5.13;3.17;;;29.30;84.30;;;;;;5025537;28;20488;-76
2021/06/29 09:18:07;;;;;;;10.98;3.67;;;29.50;85.00;;;;;;5025844;28;20025;-77
2021/06/29 09:20:43;;;;;;;5.47;3.55;;;29.50;82.40;;;;;;5025222;28;20025;-76
2021/06/29 09:23:13;;;;;;;11.85;3.20;;;29.50;83.20;;;;;;5025322;28;20022;-76
2021/06/29 09:25:42;;;;;;;5.63;3.03;;;29.50;83.40;;;;;;5025047;28;20037;-76
2021/06/29 09:28:12;;;;;;;8.50;2.80;;;30.00;84.00;;;;;;5024573;28;20021;-76
2021/06/29 09:30:53;;;;;;;8.48;3.33;;;29.90;82.90;;;;;;5025119;28;20640;-76
2021/06/29 09:33:23;;;;;;;8.77;3.05;;;30.00;82.50;;;;;;5025513;28;20107;-76
2021/06/29 09:35:54;;;;;;;8.95;3.28;;;30.20;83.40;;;;;;5025362;28;20064;-75
2021/06/29 09:38:29;;;;;;;6.43;3.38;;;30.30;84.10;;;;;;5025205;28;20041;-76
2021/06/29 09:41:17;;;;;;;5.88;3.45;;;30.00;82.40;;;;;;5024998;28;20037;-76
2021/06/29 09:43:47;;;;;;;6.30;3.03;;;29.70;83.10;;;;;;5025276;28;20029;-76
2021/06/29 09:46:15;;;;;;;7.88;3.50;;;30.00;81.50;;;;;;5025408;28;20094;-76
2021/06/29 09:48:54;;;;;;;5.70;3.03;;;29.70;83.20;;;;;;5025376;28;20097;-77
2021/06/29 09:51:24;;;;;;;8.60;3.13;;;30.40;82.10;;;;;;5025001;28;20041;-75
2021/06/29 09:53:52;;;;;;;6.45;3.25;;;30.40;81.20;;;;;;5024869;28;20124;-76
2021/06/29 09:56:23;;;;;;;5.65;3.15;;;30.30;81.60;;;;;;5025091;28;20018;-77
2021/06/29 09:58:55;;;;;;;6.32;3.15;;;30.60;81.80;;;;;;5025125;28;20155;-76
2021/06/29 10:01:25;;;;;;;8.55;3.70;;;30.80;82.40;;;;;;5025097;28;20107;-76
2021/06/29 10:03:52;;;;;;;5.85;3.08;;;30.70;81.40;;;;;;5024982;28;20108;-76
2021/06/29 10:06:27;;;;;;;7.47;3.13;;;30.80;80.80;;;;;;5024839;28;20160;-77
2021/06/29 10:09:00;;;;;;;4.97;3.33;;;30.80;82.30;;;;;;5024699;28;20045;-76
2021/06/29 10:11:32;;;;;;;;;;;30.90;80.40;;;;;;5025563;28;20026;-76
2021/06/29 10:14:00;;;;;;;6.75;3.28;;;30.80;81.20;;;;;;5024970;28;19905;-76
2021/06/29 10:16:31;;;;;;;7.05;2.72;;;30.60;80.00;;;;;;5025157;28;20105;-76
2021/06/29 10:21:29;;;;;;;7.97;2.72;;;31.20;79.80;;;;;;5024982;28;20037;-76
2021/06/29 10:24:07;;;;;;;5.05;2.63;;;31.50;80.10;;;;;;5024907;28;20053;-76
2021/06/29 10:26:34;;;;;;;5.13;2.03;;;32.00;79.10;;;;;;5024587;28;20357;-76
2021/06/29 10:29:01;;;;;;;7.53;2.63;;;31.80;77.30;;;;;;5024195;28;20028;-75
2021/06/29 10:31:30;;;;;;;7.85;2.75;;;31.40;77.40;;;;;;5024962;28;20029;-76
2021/06/29 10:34:03;;;;;;;6.13;2.28;;;31.50;79.20;;;;;;5024143;28;20076;-76
2021/06/29 10:36:31;;;;;;;6.03;2.95;;;31.70;77.10;;;;;;5024817;28;20041;-76
2021/06/29 10:38:58;;;;;;;5.60;2.45;;;32.30;79.20;;;;;;5024539;28;20541;-76
2021/06/29 10:41:30;;;;;;;5.57;2.17;;;32.40;77.90;;;;;;5024836;28;20063;-77
2021/06/29 10:43:56;;;;;;;5.15;2.10;;;32.50;75.30;;;;;;5024535;28;20025;-76
2021/06/29 10:46:27;;;;;;;7.30;1.80;;;32.70;72.20;;;;;;5024461;28;20044;-76
2021/06/29 10:48:54;;;;;;;3.67;1.88;;;32.60;72.80;;;;;;5024270;28;20086;-77
2021/06/29 10:51:37;;;;;;;3.83;1.92;;;32.80;72.40;;;;;;5024911;28;20041;-76
2021/06/29 10:54:03;;;;;;;5.95;2.03;;;32.90;71.80;;;;;;5024458;28;20036;-77
2021/06/29 10:56:54;;;;;;;7.97;2.00;;;33.20;72.30;;;;;;5024459;28;20383;-77
2021/06/29 10:59:32;;;;;;;6.70;2.00;;;33.20;72.00;;;;;;5024208;28;20076;-76
2021/06/29 11:01:58;;;;;;;8.82;2.47;;;33.00;72.70;;;;;;5023856;28;20017;-76
2021/06/29 11:04:54;;;;;;;6.53;1.75;;;32.80;72.70;;;;;;5024458;28;20371;-76
2021/06/29 11:07:26;;;;;;;7.95;2.13;;;32.80;72.50;;;;;;5024420;28;20531;-76
2021/06/29 11:10:02;;;;;;;6.15;1.90;;;33.00;72.20;;;;;;5024186;28;20036;-75
2021/06/29 11:12:35;;;;;;;7.00;1.95;;;32.80;72.50;;;;;;5026431;28;20053;-76
2021/06/29 11:15:08;;;;;;;5.93;2.05;;;33.20;71.50;;;;;;5024085;28;20021;-76
2021/06/29 11:17:53;;;;;;;7.97;1.85;;;33.20;71.90;;;;;;5023765;28;20395;-76
2021/06/29 11:20:37;;;;;;;8.77;1.83;;;33.40;71.60;;;;;;5024703;28;20421;-77
2021/06/29 11:23:06;;;;;;;4.93;1.73;;;33.20;71.20;;;;;;5026481;28;20021;-75
2021/06/29 11:25:40;;;;;;;14.13;2.63;;;33.50;71.90;;;;;;5023983;28;20045;-75
2021/06/29 11:28:07;;;;;;;5.70;1.77;;;32.70;71.50;;;;;;5024141;28;20017;-75
2021/06/29 11:30:56;;;;;;;7.65;1.58;;;32.20;71.30;;;;;;5023838;28;20037;-76
2021/06/29 11:33:40;;;;;;;4.45;2.15;;;32.50;71.40;;;;;;5023791;28;20033;-75
2021/06/29 11:36:28;;;;;;;7.70;1.95;;;32.40;71.30;;;;;;5024074;28;20119;-75
2021/06/29 11:39:15;;;;;;;4.68;1.95;;;32.10;71.50;;;;;;5023925;28;20507;-75
2021/06/29 11:41:50;;;;;;;6.78;2.13;;;31.80;71.40;;;;;;5023997;28;20030;-75
2021/06/29 11:44:15;;;;;;;5.60;1.85;;;32.00;71.30;;;;;;5023858;28;20488;-75
2021/06/29 11:46:50;;;;;;;4.65;1.50;;;32.30;70.30;;;;;;5026980;28;20080;-75
2021/06/29 11:49:39;;;;;;;6.57;1.52;;;32.40;69.90;;;;;;5027628;28;20492;-75
2021/06/29 11:52:18;;;;;;;6.15;1.58;;;32.60;70.70;;;;;;5017849;28;20052;-75
2021/06/29 11:55:04;;;;;;;5.68;1.50;;;32.50;68.60;;;;;;5027133;28;20069;-75
2021/06/29 11:57:43;;;;;;;2.53;1.08;;;32.60;69.20;;;;;;5025779;28;20029;-75
2021/06/29 12:00:27;;;;;;;6.03;1.77;;;32.80;69.40;;;;;;5027233;28;20474;-75
2021/06/29 12:02:55;;;;;;;6.00;1.55;;;32.90;67.70;;;;;;5032959;28;20025;-75
2021/06/29 12:05:29;;;;;;;5.03;1.50;;;33.10;66.60;;;;;;5046301;28;20029;-75
2021/06/29 12:07:57;;;;;;;5.45;1.50;;;33.20;66.60;;;;;;5047526;28;20029;-75
2021/06/29 12:10:28;;;;;;;7.65;1.70;;;33.10;66.40;;;;;;5047146;28;20079;-76
2021/06/29 12:13:03;;;;;;;7.35;1.63;;;33.10;66.10;;;;;;5046805;28;22573;-76
2021/06/29 12:15:29;;;;;;;19.52;1.77;;;33.10;66.20;;;;;;5046881;28;20025;-75
2021/06/29 12:18:04;;;;;;;6.28;1.55;;;33.10;65.30;;;;;;5047313;28;20039;-75
2021/06/29 12:20:41;;;;;;;7.68;1.55;;;32.90;65.40;;;;;;5046912;28;20032;-75
2021/06/29 12:23:12;;;;;;;6.97;2.00;;;32.70;65.50;;;;;;5046298;28;20494;-75
2021/06/29 12:26:07;;;;;;;8.55;1.80;;;32.80;64.80;;;;;;5045421;28;20632;-76
2021/06/29 12:28:36;;;;;;;4.78;1.80;;;33.10;65.50;;;;;;5046600;28;20029;-75
2021/06/29 12:31:04;;;;;;;14.55;1.67;;;33.20;64.30;;;;;;5046461;28;20017;-75
2021/06/29 12:33:34;;;;;;;8.35;1.50;;;33.30;63.60;;;;;;5046237;28;20049;-76
2021/06/29 12:36:03;;;;;;;4.07;1.15;;;33.20;62.80;;;;;;5046343;28;20033;-75
2021/06/29 12:38:34;;;;;;;6.55;1.52;;;33.10;62.90;;;;;;5046022;28;20049;-76
2021/06/29 12:41:06;;;;;;;6.60;1.58;;;33.50;62.40;;;;;;5045244;28;20064;-75
2021/06/29 12:43:34;;;;;;;6.60;1.90;;;33.70;63.60;;;;;;5046388;28;20025;-76
2021/06/29 12:46:34;;;;;;;5.22;1.20;;;33.90;63.80;;;;;;5045658;28;20037;-76
2021/06/29 12:49:17;;;;;;;5.28;2.22;;;33.60;63.60;;;;;;5022858;28;20067;-75
2021/06/29 12:51:43;;;;;;;;;;;33.30;62.00;;;;;;5046823;28;20028;-76
2021/06/29 12:54:14;;;;;;;7.57;1.48;;;33.50;62.90;;;;;;5046213;28;19904;-75
2021/06/29 12:56:45;;;;;;;10.30;1.58;;;33.10;62.70;;;;;;5045875;28;20028;-76
2021/06/29 12:59:12;;;;;;;3.65;1.23;;;32.80;61.80;;;;;;5046147;28;20021;-75
2021/06/29 13:01:44;;;;;;;6.15;1.35;;;33.10;63.30;;;;;;5046144;28;20041;-76